createdAt,value
2022-11-01T00:00:21.824Z,0.00
2022-11-01T00:01:21.838Z,0.00
2022-11-01T00:02:21.823Z,0.00
2022-11-01T00:03:21.794Z,0.00
2022-11-01T00:04:21.754Z,0.00
2022-11-01T00:05:21.774Z,0.00
2022-11-01T00:06:21.722Z,0.00
2022-11-01T00:07:21.714Z,0.00
2022-11-01T00:08:21.702Z,0.00
2022-11-01T00:09:21.683Z,0.00
2022-11-01T00:10:21.671Z,0.00
2022-11-01T00:11:21.687Z,0.00
2022-11-01T00:12:21.646Z,0.00
2022-11-01T00:13:21.658Z,0.00
2022-11-01T00:14:21.612Z,0.00
2022-11-01T00:15:21.658Z,0.00
2022-11-01T00:16:21.591Z,0.00
2022-11-01T00:17:21.578Z,0.00
2022-11-01T00:18:21.560Z,0.00
2022-11-01T00:19:21.536Z,0.00
2022-11-01T00:20:21.526Z,0.00
2022-11-01T00:21:21.511Z,0.00
2022-11-01T00:22:21.496Z,0.00
2022-11-01T00:23:21.479Z,0.00
2022-11-01T00:24:21.469Z,0.00
2022-11-01T00:25:21.481Z,0.00
2022-11-01T00:26:21.448Z,0.00
2022-11-01T00:27:21.484Z,0.00
2022-11-01T00:28:21.411Z,0.00
2022-11-01T00:29:21.395Z,0.00
2022-11-01T00:30:21.380Z,0.00
2022-11-01T00:31:21.363Z,0.00
2022-11-01T00:32:21.349Z,0.00
2022-11-01T00:33:21.335Z,0.00
2022-11-01T00:34:21.399Z,0.00
2022-11-01T00:35:21.305Z,0.00
2022-11-01T00:36:21.297Z,0.00
2022-11-01T00:37:21.276Z,0.00
2022-11-01T00:38:21.264Z,0.00
2022-11-01T00:39:21.282Z,0.00
2022-11-01T00:40:21.280Z,0.00
2022-11-01T00:41:21.221Z,0.00
2022-11-01T00:42:21.238Z,0.00
2022-11-01T00:43:21.193Z,0.00
2022-11-01T00:44:21.185Z,0.00
2022-11-01T00:45:21.161Z,0.00
2022-11-01T00:46:21.159Z,0.00
2022-11-01T00:47:21.131Z,0.00
2022-11-01T00:48:21.128Z,0.00
2022-11-01T00:49:21.150Z,0.00
2022-11-01T00:50:21.095Z,0.00
2022-11-01T00:51:21.072Z,0.00
2022-11-01T00:52:21.066Z,0.00
2022-11-01T00:53:21.044Z,0.00
2022-11-01T00:54:21.027Z,0.00
2022-11-01T00:55:21.059Z,0.00
2022-11-01T00:56:21.004Z,0.00
2022-11-01T00:57:20.987Z,0.00
2022-11-01T00:58:20.971Z,0.00
2022-11-01T00:59:21.004Z,0.00
2022-11-01T01:00:20.951Z,0.00
2022-11-01T01:01:21.022Z,0.00
2022-11-01T01:02:20.985Z,0.00
2022-11-01T01:03:20.904Z,0.00
2022-11-01T01:04:20.914Z,0.00
2022-11-01T01:05:20.893Z,0.00
2022-11-01T01:06:20.885Z,0.00
2022-11-01T01:07:20.835Z,0.00
2022-11-01T01:08:20.849Z,0.00
2022-11-01T01:09:20.817Z,0.00
2022-11-01T01:10:20.801Z,0.00
2022-11-01T01:11:20.849Z,0.00
2022-11-01T01:12:20.773Z,0.00
2022-11-01T01:13:20.757Z,0.00
2022-11-01T01:14:20.744Z,0.00
2022-11-01T01:15:20.752Z,0.00
2022-11-01T01:16:20.720Z,0.00
2022-11-01T01:17:20.726Z,0.00
2022-11-01T01:18:20.686Z,0.00
2022-11-01T01:19:20.717Z,0.00
2022-11-01T01:20:20.660Z,0.00
2022-11-01T01:21:20.650Z,0.00
2022-11-01T01:22:20.628Z,0.00
2022-11-01T01:23:20.614Z,0.00
2022-11-01T01:24:20.595Z,0.00
2022-11-01T01:25:20.582Z,0.00
2022-11-01T01:26:20.578Z,0.00
2022-11-01T01:27:20.552Z,0.00
2022-11-01T01:28:20.540Z,0.00
2022-11-01T01:29:20.544Z,0.00
2022-11-01T01:30:20.520Z,0.00
2022-11-01T01:31:20.488Z,0.00
2022-11-01T01:32:20.479Z,0.00
2022-11-01T01:33:20.461Z,0.00
2022-11-01T01:34:20.480Z,0.00
2022-11-01T01:35:20.439Z,0.00
2022-11-01T01:36:20.432Z,0.00
2022-11-01T01:37:20.434Z,0.00
2022-11-01T01:38:20.391Z,0.00
2022-11-01T01:39:20.406Z,0.00
2022-11-01T01:40:20.379Z,0.00
2022-11-01T01:41:20.393Z,0.00
2022-11-01T01:42:20.331Z,0.00
2022-11-01T01:43:20.315Z,0.00
2022-11-01T01:44:20.303Z,0.00
2022-11-01T01:45:20.306Z,0.00
2022-11-01T01:46:20.273Z,0.00
2022-11-01T01:47:20.273Z,0.00
2022-11-01T01:48:20.252Z,0.00
2022-11-01T01:49:20.233Z,0.00
2022-11-01T01:50:20.218Z,0.00
2022-11-01T01:51:20.195Z,0.00
2022-11-01T01:52:20.213Z,0.00
2022-11-01T01:53:20.220Z,0.00
2022-11-01T01:54:20.160Z,0.00
2022-11-01T01:55:20.139Z,0.00
2022-11-01T01:56:20.136Z,0.00
2022-11-01T01:57:20.109Z,0.00
2022-11-01T01:58:20.101Z,0.00
2022-11-01T01:59:20.116Z,0.00
2022-11-01T02:00:20.069Z,0.00
2022-11-01T02:01:20.178Z,0.00
2022-11-01T02:02:20.126Z,0.00
2022-11-01T02:03:20.029Z,0.00
2022-11-01T02:04:20.067Z,0.00
2022-11-01T02:05:19.996Z,0.00
2022-11-01T02:06:20.049Z,0.00
2022-11-01T02:07:19.982Z,0.00
2022-11-01T02:08:19.955Z,0.00
2022-11-01T02:09:19.953Z,0.00
2022-11-01T02:10:19.982Z,0.00
2022-11-01T02:11:19.909Z,0.00
2022-11-01T02:12:19.898Z,0.00
2022-11-01T02:13:19.879Z,0.00
2022-11-01T02:14:19.868Z,0.00
2022-11-01T02:15:19.852Z,0.00
2022-11-01T02:16:19.868Z,0.00
2022-11-01T02:17:19.820Z,0.00
2022-11-01T02:18:19.810Z,0.00
2022-11-01T02:19:19.797Z,0.00
2022-11-01T02:20:19.782Z,0.00
2022-11-01T02:21:19.790Z,0.00
2022-11-01T02:22:19.751Z,0.00
2022-11-01T02:23:19.750Z,0.00
2022-11-01T02:24:19.722Z,0.00
2022-11-01T02:25:19.705Z,0.00
2022-11-01T02:26:19.728Z,0.00
2022-11-01T02:27:19.680Z,0.00
2022-11-01T02:28:19.681Z,0.00
2022-11-01T02:29:19.648Z,0.00
2022-11-01T02:30:19.636Z,0.00
2022-11-01T02:31:19.631Z,0.00
2022-11-01T02:32:19.679Z,0.00
2022-11-01T02:33:19.590Z,0.00
2022-11-01T02:34:19.579Z,0.00
2022-11-01T02:35:19.568Z,0.00
2022-11-01T02:36:19.553Z,0.00
2022-11-01T02:37:19.532Z,0.00
2022-11-01T02:38:19.534Z,0.00
2022-11-01T02:39:19.534Z,0.00
2022-11-01T02:40:19.492Z,0.00
2022-11-01T02:41:19.475Z,0.00
2022-11-01T02:42:19.468Z,0.00
2022-11-01T02:43:19.444Z,0.00
2022-11-01T02:44:19.456Z,0.00
2022-11-01T02:45:19.421Z,0.00
2022-11-01T02:46:19.407Z,0.00
2022-11-01T02:47:19.388Z,0.00
2022-11-01T02:48:19.405Z,0.00
2022-11-01T02:49:19.368Z,0.00
2022-11-01T02:50:19.347Z,0.00
2022-11-01T02:51:19.375Z,0.00
2022-11-01T02:52:19.317Z,0.00
2022-11-01T02:53:19.303Z,0.00
2022-11-01T02:54:19.293Z,0.00
2022-11-01T02:55:19.271Z,0.00
2022-11-01T02:56:19.285Z,0.00
2022-11-01T02:57:19.244Z,0.00
2022-11-01T02:58:19.258Z,0.00
2022-11-01T02:59:19.242Z,0.00
2022-11-01T03:00:19.203Z,0.00
2022-11-01T03:01:19.351Z,0.00
2022-11-01T03:02:19.212Z,0.00
2022-11-01T03:03:19.223Z,0.00
2022-11-01T03:04:19.144Z,0.00
2022-11-01T03:05:19.135Z,0.00
2022-11-01T03:06:19.117Z,0.00
2022-11-01T03:07:19.110Z,0.00
2022-11-01T03:08:19.088Z,0.00
2022-11-01T03:09:19.074Z,0.00
2022-11-01T03:10:19.056Z,0.00
2022-11-01T03:11:19.048Z,0.00
2022-11-01T03:12:19.075Z,0.00
2022-11-01T03:13:19.021Z,0.00
2022-11-01T03:14:19.006Z,0.00
2022-11-01T03:15:18.990Z,0.00
2022-11-01T03:16:18.967Z,0.00
2022-11-01T03:17:18.981Z,0.00
2022-11-01T03:18:18.945Z,0.00
2022-11-01T03:19:18.966Z,0.00
2022-11-01T03:20:18.991Z,0.00
2022-11-01T03:21:18.902Z,0.00
2022-11-01T03:22:18.884Z,0.00
2022-11-01T03:23:18.868Z,0.00
2022-11-01T03:24:18.857Z,0.00
2022-11-01T03:25:18.847Z,0.00
2022-11-01T03:26:18.852Z,0.00
2022-11-01T03:27:18.852Z,0.00
2022-11-01T03:28:18.799Z,0.00
2022-11-01T03:29:18.789Z,0.00
2022-11-01T03:30:18.778Z,0.00
2022-11-01T03:31:18.808Z,0.00
2022-11-01T03:32:18.744Z,0.00
2022-11-01T03:33:18.733Z,0.00
2022-11-01T03:34:18.709Z,0.00
2022-11-01T03:35:18.701Z,0.00
2022-11-01T03:36:18.683Z,0.00
2022-11-01T03:37:18.676Z,0.00
2022-11-01T03:38:18.659Z,0.00
2022-11-01T03:39:18.641Z,0.00
2022-11-01T03:40:18.623Z,0.00
2022-11-01T03:41:18.675Z,0.00
2022-11-01T03:42:18.612Z,0.00
2022-11-01T03:43:18.584Z,0.00
2022-11-01T03:44:18.565Z,0.00
2022-11-01T03:45:18.591Z,0.00
2022-11-01T03:46:18.542Z,0.00
2022-11-01T03:47:18.538Z,0.00
2022-11-01T03:48:18.509Z,0.00
2022-11-01T03:49:18.525Z,0.00
2022-11-01T03:50:18.482Z,0.00
2022-11-01T03:51:18.471Z,0.00
2022-11-01T03:52:18.478Z,0.00
2022-11-01T03:53:18.444Z,0.00
2022-11-01T03:54:18.428Z,0.00
2022-11-01T03:55:18.421Z,0.00
2022-11-01T03:56:18.394Z,0.00
2022-11-01T03:57:18.408Z,0.00
2022-11-01T03:58:18.370Z,0.00
2022-11-01T03:59:18.359Z,0.00
2022-11-01T04:00:18.340Z,0.00
2022-11-01T04:01:18.495Z,0.00
2022-11-01T04:02:18.308Z,0.00
2022-11-01T04:03:18.298Z,0.00
2022-11-01T04:04:18.289Z,0.00
2022-11-01T04:05:18.271Z,0.00
2022-11-01T04:06:18.248Z,0.00
2022-11-01T04:07:18.242Z,0.00
2022-11-01T04:08:18.222Z,0.00
2022-11-01T04:09:18.215Z,0.00
2022-11-01T04:10:18.195Z,0.00
2022-11-01T04:11:18.214Z,0.00
2022-11-01T04:12:18.169Z,0.00
2022-11-01T04:13:18.158Z,0.00
2022-11-01T04:14:18.142Z,0.00
2022-11-01T04:15:18.142Z,0.00
2022-11-01T04:16:18.116Z,0.00
2022-11-01T04:17:18.096Z,0.00
2022-11-01T04:18:18.101Z,0.00
2022-11-01T04:19:18.096Z,0.00
2022-11-01T04:20:18.057Z,0.00
2022-11-01T04:21:18.044Z,0.00
2022-11-01T04:22:20.629Z,0.00
2022-11-01T04:23:18.012Z,0.00
2022-11-01T04:24:18.062Z,0.00
2022-11-01T04:25:17.984Z,0.00
2022-11-01T04:26:17.965Z,0.00
2022-11-01T04:27:17.953Z,0.00
2022-11-01T04:28:17.937Z,0.00
2022-11-01T04:29:17.922Z,0.00
2022-11-01T04:30:17.974Z,0.00
2022-11-01T04:31:17.899Z,0.00
2022-11-01T04:32:17.895Z,0.00
2022-11-01T04:33:17.866Z,0.00
2022-11-01T04:34:17.852Z,0.00
2022-11-01T04:35:17.838Z,0.00
2022-11-01T04:36:17.854Z,0.00
2022-11-01T04:37:17.821Z,0.00
2022-11-01T04:38:17.793Z,0.00
2022-11-01T04:39:17.780Z,0.00
2022-11-01T04:40:17.795Z,0.00
2022-11-01T04:41:17.754Z,0.00
2022-11-01T04:42:17.771Z,0.00
2022-11-01T04:43:17.726Z,0.00
2022-11-01T04:44:17.719Z,0.00
2022-11-01T04:45:17.694Z,0.00
2022-11-01T04:46:17.707Z,0.00
2022-11-01T04:47:17.672Z,0.00
2022-11-01T04:48:17.686Z,0.00
2022-11-01T04:49:17.635Z,0.00
2022-11-01T04:50:17.632Z,0.00
2022-11-01T04:51:17.607Z,0.00
2022-11-01T04:52:17.613Z,0.00
2022-11-01T04:53:17.583Z,0.00
2022-11-01T04:54:17.569Z,0.00
2022-11-01T04:55:17.553Z,0.00
2022-11-01T04:56:17.542Z,0.00
2022-11-01T04:57:17.549Z,0.00
2022-11-01T04:58:17.510Z,0.00
2022-11-01T04:59:17.525Z,0.00
2022-11-01T05:00:17.504Z,0.00
2022-11-01T05:01:17.541Z,0.00
2022-11-01T05:02:17.534Z,0.00
2022-11-01T05:03:17.435Z,0.00
2022-11-01T05:04:17.420Z,0.00
2022-11-01T05:05:17.471Z,0.00
2022-11-01T05:06:17.392Z,0.00
2022-11-01T05:07:17.377Z,0.00
2022-11-01T05:08:17.361Z,0.00
2022-11-01T05:09:17.354Z,0.00
2022-11-01T05:10:17.335Z,0.00
2022-11-01T05:11:17.325Z,0.00
2022-11-01T05:12:17.310Z,0.00
2022-11-01T05:13:17.296Z,0.00
2022-11-01T05:14:17.277Z,0.00
2022-11-01T05:15:17.263Z,0.00
2022-11-01T05:16:19.696Z,0.00
2022-11-01T05:17:17.236Z,0.00
2022-11-01T05:18:17.217Z,0.00
2022-11-01T05:19:17.205Z,0.00
2022-11-01T05:20:17.227Z,0.00
2022-11-01T05:21:17.176Z,0.00
2022-11-01T05:22:17.169Z,0.00
2022-11-01T05:23:17.177Z,0.00
2022-11-01T05:24:17.138Z,0.00
2022-11-01T05:25:17.119Z,0.00
2022-11-01T05:26:17.133Z,0.00
2022-11-01T05:27:17.099Z,0.00
2022-11-01T05:28:17.100Z,0.00
2022-11-01T05:29:24.746Z,0.00
2022-11-01T05:30:17.064Z,0.00
2022-11-01T05:31:17.052Z,0.00
2022-11-01T05:32:17.017Z,0.00
2022-11-01T05:33:17.019Z,0.00
2022-11-01T05:34:16.988Z,0.00
2022-11-01T05:35:16.974Z,0.00
2022-11-01T05:36:16.978Z,0.00
2022-11-01T05:37:16.970Z,0.00
2022-11-01T05:38:16.936Z,0.00
2022-11-01T05:39:16.920Z,0.00
2022-11-01T05:40:16.904Z,0.00
2022-11-01T05:41:17.115Z,0.00
2022-11-01T05:42:16.870Z,0.00
2022-11-01T05:43:16.862Z,0.00
2022-11-01T05:44:16.855Z,0.00
2022-11-01T05:45:16.829Z,0.00
2022-11-01T05:46:16.825Z,0.00
2022-11-01T05:47:17.544Z,0.00
2022-11-01T05:48:16.784Z,0.00
2022-11-01T05:49:16.773Z,0.00
2022-11-01T05:50:16.758Z,0.00
2022-11-01T05:51:16.769Z,0.00
2022-11-01T05:52:16.733Z,0.00
2022-11-01T05:53:16.712Z,0.00
2022-11-01T05:54:16.693Z,0.00
2022-11-01T05:55:16.687Z,0.00
2022-11-01T05:56:16.675Z,4.00
2022-11-01T05:57:16.651Z,4.00
2022-11-01T05:58:16.655Z,0.00
2022-11-01T05:59:16.620Z,4.00
2022-11-01T06:00:16.608Z,4.00
2022-11-01T06:01:16.638Z,4.00
2022-11-01T06:02:16.621Z,4.00
2022-11-01T06:03:16.570Z,4.00
2022-11-01T06:04:16.554Z,8.00
2022-11-01T06:05:16.549Z,8.00
2022-11-01T06:06:16.528Z,8.00
2022-11-01T06:07:16.534Z,12.00
2022-11-01T06:08:16.495Z,12.00
2022-11-01T06:09:16.478Z,12.00
2022-11-01T06:10:16.490Z,16.00
2022-11-01T06:11:16.456Z,16.00
2022-11-01T06:12:16.434Z,16.00
2022-11-01T06:13:16.429Z,20.00
2022-11-01T06:14:16.409Z,20.00
2022-11-01T06:15:16.399Z,20.00
2022-11-01T06:16:16.372Z,20.00
2022-11-01T06:17:16.361Z,20.00
2022-11-01T06:18:16.352Z,24.00
2022-11-01T06:19:16.336Z,28.00
2022-11-01T06:20:16.345Z,32.00
2022-11-01T06:21:16.330Z,44.00
2022-11-01T06:22:16.289Z,48.00
2022-11-01T06:23:16.275Z,52.00
2022-11-01T06:24:16.287Z,60.00
2022-11-01T06:25:16.297Z,76.00
2022-11-01T06:26:16.228Z,80.00
2022-11-01T06:27:16.217Z,88.00
2022-11-01T06:28:16.209Z,100.00
2022-11-01T06:29:16.190Z,108.00
2022-11-01T06:30:16.175Z,116.00
2022-11-01T06:31:16.209Z,120.00
2022-11-01T06:32:16.151Z,128.00
2022-11-01T06:33:16.167Z,132.00
2022-11-01T06:34:16.131Z,144.00
2022-11-01T06:35:16.110Z,148.00
2022-11-01T06:36:16.093Z,156.00
2022-11-01T06:37:16.107Z,172.00
2022-11-01T06:38:16.060Z,176.00
2022-11-01T06:39:16.104Z,184.00
2022-11-01T06:40:16.049Z,196.00
2022-11-01T06:41:16.018Z,208.00
2022-11-01T06:42:16.144Z,224.00
2022-11-01T06:43:15.995Z,232.00
2022-11-01T06:44:15.976Z,240.00
2022-11-01T06:45:15.971Z,248.00
2022-11-01T06:46:15.948Z,260.00
2022-11-01T06:47:15.945Z,264.00
2022-11-01T06:48:15.946Z,280.00
2022-11-01T06:49:18.906Z,300.00
2022-11-01T06:50:15.935Z,312.00
2022-11-01T06:51:15.879Z,320.00
2022-11-01T06:52:15.867Z,324.00
2022-11-01T06:53:15.853Z,324.00
2022-11-01T06:54:15.841Z,308.00
2022-11-01T06:55:15.829Z,312.00
2022-11-01T06:56:15.841Z,312.00
2022-11-01T06:57:15.800Z,336.00
2022-11-01T06:58:15.795Z,348.00
2022-11-01T06:59:15.770Z,368.00
2022-11-01T07:00:15.759Z,380.00
2022-11-01T07:01:15.869Z,444.00
2022-11-01T07:02:18.277Z,528.00
2022-11-01T07:03:15.722Z,580.00
2022-11-01T07:04:15.707Z,588.00
2022-11-01T07:05:15.724Z,596.00
2022-11-01T07:06:15.670Z,588.00
2022-11-01T07:07:15.665Z,628.00
2022-11-01T07:08:15.656Z,644.00
2022-11-01T07:09:15.633Z,644.00
2022-11-01T07:10:15.637Z,648.00
2022-11-01T07:11:15.607Z,640.00
2022-11-01T07:12:15.616Z,644.00
2022-11-01T07:13:15.578Z,664.00
2022-11-01T07:14:15.566Z,660.00
2022-11-01T07:15:15.558Z,684.00
2022-11-01T07:16:15.597Z,696.00
2022-11-01T07:17:15.526Z,712.00
2022-11-01T07:18:15.514Z,740.00
2022-11-01T07:19:15.500Z,772.00
2022-11-01T07:20:15.485Z,812.00
2022-11-01T07:21:15.487Z,860.00
2022-11-01T07:22:15.459Z,908.00
2022-11-01T07:23:15.452Z,968.00
2022-11-01T07:24:15.440Z,996.00
2022-11-01T07:25:15.449Z,1032.00
2022-11-01T07:26:15.399Z,1020.00
2022-11-01T07:27:20.338Z,1032.00
2022-11-01T07:28:15.377Z,1032.00
2022-11-01T07:29:15.380Z,1064.00
2022-11-01T07:30:15.349Z,1080.00
2022-11-01T07:31:15.334Z,1096.00
2022-11-01T07:32:15.337Z,1108.00
2022-11-01T07:33:15.360Z,1100.00
2022-11-01T07:34:15.297Z,1124.00
2022-11-01T07:35:15.300Z,1148.00
2022-11-01T07:36:15.269Z,1176.00
2022-11-01T07:37:15.279Z,1208.00
2022-11-01T07:38:15.495Z,1244.00
2022-11-01T07:39:15.232Z,1328.00
2022-11-01T07:40:15.221Z,1348.00
2022-11-01T07:41:15.201Z,1400.00
2022-11-01T07:42:15.189Z,1448.00
2022-11-01T07:43:15.173Z,1488.00
2022-11-01T07:44:15.253Z,1548.00
2022-11-01T07:45:15.152Z,1584.00
2022-11-01T07:46:15.135Z,1620.00
2022-11-01T07:47:15.121Z,1644.00
2022-11-01T07:48:15.114Z,1708.00
2022-11-01T07:49:15.109Z,1772.00
2022-11-01T07:50:15.107Z,1804.00
2022-11-01T07:51:15.567Z,1808.00
2022-11-01T07:52:15.108Z,1840.00
2022-11-01T07:53:15.042Z,1880.00
2022-11-01T07:54:15.050Z,1904.00
2022-11-01T07:55:15.017Z,1932.00
2022-11-01T07:56:15.046Z,1948.00
2022-11-01T07:57:15.002Z,1988.00
2022-11-01T07:58:14.977Z,2024.00
2022-11-01T07:59:14.977Z,2036.00
2022-11-01T08:00:14.958Z,2036.00
2022-11-01T08:01:15.063Z,2040.00
2022-11-01T08:02:15.051Z,2008.00
2022-11-01T08:03:14.909Z,1968.00
2022-11-01T08:04:14.927Z,1948.00
2022-11-01T08:05:14.896Z,1936.00
2022-11-01T08:06:14.917Z,1960.00
2022-11-01T08:07:14.957Z,1972.00
2022-11-01T08:08:14.885Z,2008.00
2022-11-01T08:09:14.866Z,2016.00
2022-11-01T08:10:14.814Z,2036.00
2022-11-01T08:11:14.803Z,2040.00
2022-11-01T08:12:14.790Z,2036.00
2022-11-01T08:13:14.806Z,2056.00
2022-11-01T08:14:14.765Z,2060.00
2022-11-01T08:15:14.823Z,2064.00
2022-11-01T08:16:14.739Z,2068.00
2022-11-01T08:17:14.728Z,2056.00
2022-11-01T08:18:14.709Z,2032.00
2022-11-01T08:19:14.698Z,1996.00
2022-11-01T08:20:14.692Z,1884.00
2022-11-01T08:21:14.671Z,1888.00
2022-11-01T08:22:14.660Z,1844.00
2022-11-01T08:23:14.669Z,1756.00
2022-11-01T08:24:14.667Z,1668.00
2022-11-01T08:25:14.618Z,1648.00
2022-11-01T08:26:14.620Z,1644.00
2022-11-01T08:27:14.619Z,1580.00
2022-11-01T08:28:14.584Z,1568.00
2022-11-01T08:29:14.573Z,1528.00
2022-11-01T08:30:14.549Z,1480.00
2022-11-01T08:31:14.541Z,1404.00
2022-11-01T08:32:14.531Z,1320.00
2022-11-01T08:33:14.516Z,1264.00
2022-11-01T08:34:16.940Z,1256.00
2022-11-01T08:35:14.484Z,1180.00
2022-11-01T08:36:14.526Z,1144.00
2022-11-01T08:37:14.459Z,1180.00
2022-11-01T08:38:14.649Z,1180.00
2022-11-01T08:39:14.653Z,1156.00
2022-11-01T08:40:14.417Z,1148.00
2022-11-01T08:41:14.403Z,1132.00
2022-11-01T08:42:14.398Z,1092.00
2022-11-01T08:43:14.399Z,1152.00
2022-11-01T08:44:14.366Z,1320.00
2022-11-01T08:45:14.361Z,1340.00
2022-11-01T08:46:14.381Z,1404.00
2022-11-01T08:47:14.324Z,1632.00
2022-11-01T08:48:14.318Z,1668.00
2022-11-01T08:49:14.441Z,1732.00
2022-11-01T08:50:14.312Z,1632.00
2022-11-01T08:51:14.292Z,2080.00
2022-11-01T08:52:14.463Z,2004.00
2022-11-01T08:53:14.270Z,1692.00
2022-11-01T08:54:14.224Z,1744.00
2022-11-01T08:55:14.226Z,1632.00
2022-11-01T08:56:14.198Z,1360.00
2022-11-01T08:57:14.185Z,1252.00
2022-11-01T08:58:14.171Z,1344.00
2022-11-01T08:59:14.189Z,1328.00
2022-11-01T09:00:14.141Z,1360.00
2022-11-01T09:01:14.216Z,1348.00
2022-11-01T09:02:14.286Z,1308.00
2022-11-01T09:03:14.094Z,1336.00
2022-11-01T09:04:14.118Z,1324.00
2022-11-01T09:05:14.109Z,1320.00
2022-11-01T09:06:14.062Z,1324.00
2022-11-01T09:07:14.042Z,1332.00
2022-11-01T09:08:14.052Z,1348.00
2022-11-01T09:09:14.010Z,1336.00
2022-11-01T09:10:14.001Z,1376.00
2022-11-01T09:11:13.982Z,1352.00
2022-11-01T09:12:14.928Z,1364.00
2022-11-01T09:13:13.956Z,1344.00
2022-11-01T09:14:13.944Z,1336.00
2022-11-01T09:15:13.954Z,1356.00
2022-11-01T09:16:13.915Z,1360.00
2022-11-01T09:17:13.917Z,1352.00
2022-11-01T09:18:13.922Z,1372.00
2022-11-01T09:19:13.877Z,1396.00
2022-11-01T09:20:13.862Z,1348.00
2022-11-01T09:21:13.842Z,1368.00
2022-11-01T09:22:13.845Z,1368.00
2022-11-01T09:23:13.844Z,1360.00
2022-11-01T09:24:13.852Z,1388.00
2022-11-01T09:25:13.791Z,1372.00
2022-11-01T09:26:13.774Z,1388.00
2022-11-01T09:27:13.758Z,1380.00
2022-11-01T09:28:13.748Z,1380.00
2022-11-01T09:29:13.760Z,1424.00
2022-11-01T09:30:13.729Z,1392.00
2022-11-01T09:31:20.941Z,1404.00
2022-11-01T09:32:13.697Z,1404.00
2022-11-01T09:33:13.673Z,1388.00
2022-11-01T09:34:13.710Z,1412.00
2022-11-01T09:35:13.645Z,1424.00
2022-11-01T09:36:13.651Z,1424.00
2022-11-01T09:37:13.625Z,1420.00
2022-11-01T09:38:13.608Z,1432.00
2022-11-01T09:39:13.615Z,1444.00
2022-11-01T09:40:13.575Z,1428.00
2022-11-01T09:41:13.568Z,1464.00
2022-11-01T09:42:13.549Z,1452.00
2022-11-01T09:43:13.536Z,1420.00
2022-11-01T09:44:13.549Z,1436.00
2022-11-01T09:45:13.532Z,1440.00
2022-11-01T09:46:13.533Z,1448.00
2022-11-01T09:47:13.507Z,1460.00
2022-11-01T09:48:13.464Z,1472.00
2022-11-01T09:49:13.466Z,1468.00
2022-11-01T09:50:13.488Z,1460.00
2022-11-01T09:51:13.420Z,1512.00
2022-11-01T09:52:13.406Z,1456.00
2022-11-01T09:53:13.405Z,1456.00
2022-11-01T09:54:13.379Z,1456.00
2022-11-01T09:55:13.367Z,1468.00
2022-11-01T09:56:13.405Z,1464.00
2022-11-01T09:57:13.335Z,1468.00
2022-11-01T09:58:13.323Z,1520.00
2022-11-01T09:59:13.308Z,1500.00
2022-11-01T10:00:13.296Z,1516.00
2022-11-01T10:01:13.373Z,1500.00
2022-11-01T10:02:13.348Z,1504.00
2022-11-01T10:03:13.297Z,1512.00
2022-11-01T10:04:13.243Z,1544.00
2022-11-01T10:05:15.997Z,1544.00
2022-11-01T10:06:13.210Z,1536.00
2022-11-01T10:07:13.229Z,1544.00
2022-11-01T10:08:13.182Z,1536.00
2022-11-01T10:09:13.170Z,1560.00
2022-11-01T10:10:13.160Z,1548.00
2022-11-01T10:11:13.154Z,1568.00
2022-11-01T10:12:13.128Z,1564.00
2022-11-01T10:13:13.136Z,1584.00
2022-11-01T10:14:13.100Z,1600.00
2022-11-01T10:15:13.083Z,1588.00
2022-11-01T10:16:13.119Z,1616.00
2022-11-01T10:17:13.063Z,1604.00
2022-11-01T10:18:13.045Z,1620.00
2022-11-01T10:19:13.027Z,1616.00
2022-11-01T10:20:13.071Z,1624.00
2022-11-01T10:21:13.049Z,1628.00
2022-11-01T10:22:12.991Z,1644.00
2022-11-01T10:23:12.979Z,1676.00
2022-11-01T10:24:12.961Z,1668.00
2022-11-01T10:25:12.943Z,1640.00
2022-11-01T10:26:12.933Z,1652.00
2022-11-01T10:27:12.943Z,1652.00
2022-11-01T10:28:12.909Z,1676.00
2022-11-01T10:29:12.915Z,1680.00
2022-11-01T10:30:12.878Z,1696.00
2022-11-01T10:31:12.917Z,1692.00
2022-11-01T10:32:12.854Z,1680.00
2022-11-01T10:33:12.833Z,1696.00
2022-11-01T10:34:12.827Z,1712.00
2022-11-01T10:35:12.809Z,1708.00
2022-11-01T10:36:12.802Z,1704.00
2022-11-01T10:37:12.802Z,1708.00
2022-11-01T10:38:24.904Z,1728.00
2022-11-01T10:40:13.280Z,1744.00
2022-11-01T10:41:12.721Z,1732.00
2022-11-01T10:42:12.741Z,1780.00
2022-11-01T10:43:12.706Z,1748.00
2022-11-01T10:44:12.723Z,1764.00
2022-11-01T10:45:12.669Z,1808.00
2022-11-01T10:46:12.657Z,1760.00
2022-11-01T10:47:12.677Z,1772.00
2022-11-01T10:48:12.631Z,1772.00
2022-11-01T10:49:12.616Z,1772.00
2022-11-01T10:50:12.604Z,1768.00
2022-11-01T10:51:12.588Z,1764.00
2022-11-01T10:52:12.576Z,1780.00
2022-11-01T10:53:12.609Z,1784.00
2022-11-01T10:54:12.638Z,1812.00
2022-11-01T10:55:12.569Z,1788.00
2022-11-01T10:56:12.520Z,1812.00
2022-11-01T10:57:12.512Z,1804.00
2022-11-01T10:58:12.525Z,1812.00
2022-11-01T10:59:12.479Z,1840.00
2022-11-01T11:00:12.520Z,1832.00
2022-11-01T11:01:12.584Z,1848.00
2022-11-01T11:02:12.593Z,1852.00
2022-11-01T11:03:12.428Z,1856.00
2022-11-01T11:04:12.413Z,1880.00
2022-11-01T11:05:12.397Z,1856.00
2022-11-01T11:06:12.400Z,1856.00
2022-11-01T11:07:12.371Z,1888.00
2022-11-01T11:08:12.381Z,1868.00
2022-11-01T11:09:12.345Z,1888.00
2022-11-01T11:10:12.387Z,2024.00
2022-11-01T11:11:12.376Z,1900.00
2022-11-01T11:12:12.358Z,1892.00
2022-11-01T11:13:12.296Z,1928.00
2022-11-01T11:14:12.288Z,2260.00
2022-11-01T11:15:12.292Z,1916.00
2022-11-01T11:16:12.263Z,1932.00
2022-11-01T11:17:12.240Z,2096.00
2022-11-01T11:18:12.238Z,1996.00
2022-11-01T11:19:12.235Z,2044.00
2022-11-01T11:20:12.210Z,1984.00
2022-11-01T11:21:12.214Z,2088.00
2022-11-01T11:22:12.178Z,1984.00
2022-11-01T11:23:12.231Z,2012.00
2022-11-01T11:24:12.144Z,1968.00
2022-11-01T11:25:12.132Z,2016.00
2022-11-01T11:26:12.123Z,2108.00
2022-11-01T11:27:12.119Z,2000.00
2022-11-01T11:28:12.089Z,2140.00
2022-11-01T11:29:12.106Z,3576.00
2022-11-01T11:30:12.065Z,2412.00
2022-11-01T11:31:12.090Z,2192.00
2022-11-01T11:32:12.037Z,2072.00
2022-11-01T11:33:12.031Z,2148.00
2022-11-01T11:34:12.009Z,2192.00
2022-11-01T11:35:11.997Z,2784.00
2022-11-01T11:36:12.012Z,2848.00
2022-11-01T11:37:11.984Z,2484.00
2022-11-01T11:38:11.967Z,3280.00
2022-11-01T11:39:11.949Z,2192.00
2022-11-01T11:40:11.933Z,2648.00
2022-11-01T11:41:11.952Z,4788.00
2022-11-01T11:42:11.905Z,4560.00
2022-11-01T11:43:12.047Z,2572.00
2022-11-01T11:44:11.892Z,2272.00
2022-11-01T11:45:11.871Z,2152.00
2022-11-01T11:46:11.870Z,2124.00
2022-11-01T11:47:11.858Z,2220.00
2022-11-01T11:48:11.836Z,4136.00
2022-11-01T11:49:11.867Z,2212.00
2022-11-01T11:50:11.825Z,2848.00
2022-11-01T11:51:11.810Z,2932.00
2022-11-01T11:52:11.779Z,2292.00
2022-11-01T11:53:11.765Z,2480.00
2022-11-01T11:54:11.802Z,2208.00
2022-11-01T11:55:11.737Z,2432.00
2022-11-01T11:56:11.736Z,3748.00
2022-11-01T11:57:11.709Z,3540.00
2022-11-01T11:58:11.703Z,3176.00
2022-11-01T11:59:11.718Z,3248.00
2022-11-01T12:00:11.671Z,5392.00
2022-11-01T12:01:11.731Z,3684.00
2022-11-01T12:02:13.397Z,3480.00
2022-11-01T12:03:11.729Z,2292.00
2022-11-01T12:04:11.634Z,3940.00
2022-11-01T12:05:11.645Z,3244.00
2022-11-01T12:06:11.600Z,2996.00
2022-11-01T12:07:11.581Z,4848.00
2022-11-01T12:08:11.717Z,8724.00
2022-11-01T12:09:11.557Z,772.00
2022-11-01T12:10:11.561Z,4020.00
2022-11-01T12:11:11.621Z,4432.00
2022-11-01T12:12:11.539Z,3148.00
2022-11-01T12:13:11.502Z,6336.00
2022-11-01T12:14:11.492Z,2320.00
2022-11-01T12:15:11.516Z,2116.00
2022-11-01T12:16:11.562Z,2160.00
2022-11-01T12:17:11.559Z,2104.00
2022-11-01T12:18:14.589Z,2132.00
2022-11-01T12:19:11.507Z,2124.00
2022-11-01T12:20:11.677Z,2148.00
2022-11-01T12:21:11.409Z,2128.00
2022-11-01T12:22:11.390Z,2144.00
2022-11-01T12:23:11.465Z,2172.00
2022-11-01T12:24:11.364Z,2172.00
2022-11-01T12:25:11.409Z,2284.00
2022-11-01T12:26:14.082Z,2300.00
2022-11-01T12:27:11.327Z,2164.00
2022-11-01T12:28:11.455Z,2204.00
2022-11-01T12:29:11.313Z,2200.00
2022-11-01T12:30:11.289Z,2192.00
2022-11-01T12:31:11.310Z,2180.00
2022-11-01T12:32:11.269Z,2208.00
2022-11-01T12:33:11.296Z,2204.00
2022-11-01T12:34:11.247Z,2220.00
2022-11-01T12:35:11.263Z,2192.00
2022-11-01T12:36:11.228Z,2204.00
2022-11-01T12:37:11.208Z,2220.00
2022-11-01T12:38:11.218Z,2356.00
2022-11-01T12:39:11.327Z,2244.00
2022-11-01T12:40:11.157Z,2964.00
2022-11-01T12:41:11.185Z,2224.00
2022-11-01T12:42:11.163Z,2228.00
2022-11-01T12:43:11.150Z,2096.00